Time;durP1;ratioP1;P1;durP2;ratioP2;P2;SDS_P1;SDS_P2;PMS_P1;PMS_P2;Temp;Humidity;BMP_temperature;BMP_pressure;BME280_temperature;BME280_humidity;BME280_pressure;Samples;Min_cycle;Max_cycle;Signal;HPM_P1;HPM_P2
2022/12/09 00:00:55;;;;;;;40.10;19.73;;;3.90;99.90;;;;;;5063798;28;20029;-73
2022/12/09 00:03:20;;;;;;;37.05;19.70;;;4.00;99.90;;;;;;5080345;28;20033;-73
2022/12/09 00:05:46;;;;;;;32.85;19.10;;;4.00;99.90;;;;;;5079071;28;20033;-74
2022/12/09 00:08:12;;;;;;;41.03;19.65;;;3.90;99.90;;;;;;5061616;28;20024;-73
2022/12/09 00:10:38;;;;;;;37.90;20.15;;;4.00;99.90;;;;;;5082985;28;20124;-74
2022/12/09 00:13:03;;;;;;;39.17;19.55;;;3.90;99.90;;;;;;5085082;28;20046;-74
2022/12/09 00:15:29;;;;;;;43.05;20.38;;;4.00;99.90;;;;;;5084840;28;20033;-73
2022/12/09 00:17:55;;;;;;;36.63;19.80;;;4.00;99.90;;;;;;5065417;28;20518;-73
2022/12/09 00:20:20;;;;;;;42.20;21.58;;;3.90;99.90;;;;;;5064356;28;20452;-73
2022/12/09 00:22:46;;;;;;;42.80;22.40;;;3.90;99.90;;;;;;5080913;28;20111;-73
2022/12/09 00:25:11;;;;;;;42.50;22.33;;;3.90;99.90;;;;;;5082175;28;20084;-73
2022/12/09 00:27:37;;;;;;;35.95;19.67;;;3.90;99.90;;;;;;5063004;28;20044;-73
2022/12/09 00:30:03;;;;;;;38.22;21.15;;;3.90;99.90;;;;;;5080840;28;20029;-73
2022/12/09 00:32:29;;;;;;;41.45;21.55;;;4.00;99.90;;;;;;5081119;28;20024;-74
2022/12/09 00:34:54;;;;;;;40.03;20.42;;;4.00;99.90;;;;;;5063765;28;20385;-73
2022/12/09 00:37:20;;;;;;;48.60;22.42;;;4.00;99.90;;;;;;5081472;28;20080;-74
2022/12/09 00:39:46;;;;;;;40.58;21.17;;;4.00;99.90;;;;;;5065464;28;20025;-74
2022/12/09 00:42:11;;;;;;;42.25;20.85;;;3.90;99.90;;;;;;5084788;28;20050;-74
2022/12/09 00:44:37;;;;;;;38.10;20.52;;;3.90;99.90;;;;;;5085284;28;20139;-74
2022/12/09 00:47:03;;;;;;;43.38;22.02;;;3.90;99.90;;;;;;5066653;28;20024;-73
2022/12/09 00:49:28;;;;;;;41.55;22.35;;;3.90;99.90;;;;;;5083119;28;20024;-73
2022/12/09 00:51:54;;;;;;;41.95;22.63;;;3.90;99.90;;;;;;5082648;28;20031;-73
2022/12/09 00:54:19;;;;;;;41.92;21.83;;;3.90;99.90;;;;;;5082429;28;20024;-73
2022/12/09 00:56:45;;;;;;;43.47;23.17;;;3.90;99.90;;;;;;5081707;28;20036;-73
2022/12/09 00:59:11;;;;;;;44.75;22.42;;;3.90;99.90;;;;;;5063052;28;20027;-73
2022/12/09 01:01:36;;;;;;;39.28;21.25;;;3.90;99.90;;;;;;5081409;28;20106;-74
2022/12/09 01:04:07;;;;;;;40.95;21.52;;;3.90;99.90;;;;;;5080899;28;20074;-73
2022/12/09 01:06:32;;;;;;;40.38;21.08;;;3.90;99.90;;;;;;5080146;28;20054;-73
2022/12/09 01:08:58;;;;;;;39.78;22.65;;;3.90;99.90;;;;;;5080595;28;20095;-74
2022/12/09 01:11:27;;;;;;;41.08;22.25;;;4.00;99.90;;;;;;5080022;28;20031;-74
2022/12/09 01:13:56;;;;;;;42.50;22.75;;;4.00;99.90;;;;;;5080141;28;20091;-73
2022/12/09 01:16:24;;;;;;;39.03;21.20;;;4.00;99.90;;;;;;5084661;28;20058;-74
2022/12/09 01:18:51;;;;;;;39.30;20.75;;;3.90;99.90;;;;;;5087856;28;20024;-74
2022/12/09 01:21:17;;;;;;;38.65;21.10;;;3.90;99.90;;;;;;5085476;28;20032;-74
2022/12/09 01:23:43;;;;;;;38.50;21.08;;;3.90;99.90;;;;;;5067576;28;20028;-74
2022/12/09 01:26:09;;;;;;;39.15;21.60;;;3.90;99.90;;;;;;5066518;28;20095;-74
2022/12/09 01:28:37;;;;;;;40.67;22.15;;;3.90;99.90;;;;;;5066621;28;20029;-74
2022/12/09 01:31:10;;;;;;;37.45;21.52;;;3.90;99.90;;;;;;5084409;28;20044;-74
2022/12/09 01:33:36;;;;;;;38.03;20.30;;;3.90;99.90;;;;;;5082666;28;20031;-74
2022/12/09 01:36:08;;;;;;;35.17;17.67;;;3.90;99.90;;;;;;5081649;28;20111;-74
2022/12/09 01:38:34;;;;;;;29.60;16.23;;;3.90;99.90;;;;;;5063716;28;20357;-74
2022/12/09 01:40:59;;;;;;;23.75;13.82;;;3.90;99.90;;;;;;5081192;28;20029;-74
2022/12/09 01:43:25;;;;;;;22.88;13.57;;;3.90;99.90;;;;;;5080870;28;20043;-74
2022/12/09 01:45:51;;;;;;;24.88;13.05;;;3.90;99.90;;;;;;5079932;28;20032;-74
2022/12/09 01:48:25;;;;;;;21.85;11.88;;;3.90;99.90;;;;;;5061230;28;20028;-74
2022/12/09 01:51:04;;;;;;;19.80;12.27;;;3.90;99.90;;;;;;5078684;28;20021;-73
2022/12/09 01:53:34;;;;;;;17.45;11.68;;;3.90;99.90;;;;;;5078732;28;20031;-74
2022/12/09 01:56:05;;;;;;;21.25;12.48;;;3.90;99.90;;;;;;5080147;28;20037;-74
2022/12/09 01:58:31;;;;;;;22.70;12.20;;;3.90;99.90;;;;;;5079158;28;20056;-74
2022/12/09 02:00:56;;;;;;;19.30;11.85;;;3.90;99.90;;;;;;5061646;28;20102;-74
2022/12/09 02:03:22;;;;;;;20.95;12.15;;;3.90;99.90;;;;;;5079123;28;20025;-74
2022/12/09 02:05:48;;;;;;;19.13;11.40;;;3.90;99.90;;;;;;5079842;28;20549;-74
2022/12/09 02:08:17;;;;;;;17.88;11.60;;;3.90;99.90;;;;;;5081136;28;20021;-74
2022/12/09 02:10:55;;;;;;;;;;;3.90;99.90;;;;;;5082916;28;20530;-74
2022/12/09 02:13:25;;;;;;;23.40;11.73;;;3.80;99.90;;;;;;5080898;28;19904;-74
2022/12/09 02:15:57;;;;;;;20.35;12.38;;;3.80;99.90;;;;;;5062590;28;20480;-73
2022/12/09 02:18:35;;;;;;;19.50;11.82;;;3.80;99.90;;;;;;5059563;28;20033;-74
2022/12/09 02:21:07;;;;;;;22.00;11.77;;;3.80;99.90;;;;;;5078085;28;20029;-74
2022/12/09 02:23:38;;;;;;;18.65;11.15;;;3.80;99.90;;;;;;5077500;28;20044;-74
2022/12/09 02:26:11;;;;;;;20.70;11.32;;;3.80;99.90;;;;;;5076380;28;20031;-74
2022/12/09 02:28:50;;;;;;;20.17;12.10;;;3.80;99.90;;;;;;5058446;28;20028;-74
2022/12/09 02:31:40;;;;;;;18.50;11.50;;;3.80;99.90;;;;;;5057934;28;20025;-74
2022/12/09 02:34:20;;;;;;;20.50;11.52;;;3.80;99.90;;;;;;5076021;28;20035;-74
2022/12/09 02:37:03;;;;;;;18.75;10.93;;;3.80;99.90;;;;;;5057750;28;20055;-74
2022/12/09 02:39:42;;;;;;;18.73;10.43;;;3.80;99.90;;;;;;5057703;28;20021;-74
2022/12/09 02:42:12;;;;;;;15.30;10.25;;;3.70;99.90;;;;;;5075761;28;20523;-74
2022/12/09 02:44:39;;;;;;;15.30;9.68;;;3.80;99.90;;;;;;5075662;28;20109;-73
2022/12/09 02:47:08;;;;;;;17.20;10.75;;;3.80;99.90;;;;;;5058189;28;20136;-74
2022/12/09 02:49:35;;;;;;;17.02;10.77;;;3.80;99.90;;;;;;5076266;28;20050;-73
2022/12/09 02:52:03;;;;;;;18.05;10.77;;;3.80;99.90;;;;;;5059866;28;20111;-73
2022/12/09 02:54:32;;;;;;;18.77;9.98;;;3.70;99.90;;;;;;5078299;28;20036;-74
2022/12/09 02:57:06;;;;;;;18.25;10.50;;;3.70;99.90;;;;;;5059645;28;20153;-74
2022/12/09 02:59:31;;;;;;;15.52;9.88;;;3.70;99.90;;;;;;5077598;28;20119;-74
2022/12/09 03:02:22;;;;;;;19.48;10.77;;;3.70;99.90;;;;;;5075987;28;20064;-74
2022/12/09 03:05:20;;;;;;;17.50;9.57;;;3.70;99.90;;;;;;5059340;28;20056;-74
2022/12/09 03:08:02;;;;;;;13.50;8.27;;;3.80;99.90;;;;;;5022759;28;20052;-74
2022/12/09 03:10:56;;;;;;;16.15;10.13;;;3.70;99.90;;;;;;5085174;28;20085;-74
2022/12/09 03:13:51;;;;;;;15.07;9.50;;;3.70;99.90;;;;;;5073143;28;20060;-74
2022/12/09 03:16:22;;;;;;;13.88;8.25;;;3.70;99.90;;;;;;5085734;28;20036;-73
2022/12/09 03:18:54;;;;;;;12.90;8.23;;;3.70;99.90;;;;;;5083741;28;20082;-73
2022/12/09 03:21:22;;;;;;;13.68;8.32;;;3.60;99.90;;;;;;5065396;28;20074;-74
2022/12/09 03:23:51;;;;;;;16.00;8.88;;;3.60;99.90;;;;;;5083494;28;20025;-74
2022/12/09 03:26:17;;;;;;;12.73;8.65;;;3.60;99.90;;;;;;5065015;28;20119;-74
2022/12/09 03:28:48;;;;;;;13.02;7.95;;;3.60;99.90;;;;;;5064505;28;20173;-73
2022/12/09 03:31:18;;;;;;;13.40;8.52;;;3.60;99.90;;;;;;5081575;28;20469;-73
2022/12/09 03:33:46;;;;;;;12.20;8.20;;;3.60;99.90;;;;;;5064325;28;20028;-74
2022/12/09 03:36:14;;;;;;;15.20;8.85;;;3.60;99.90;;;;;;5065027;28;20495;-74
2022/12/09 03:38:42;;;;;;;11.50;8.10;;;3.60;99.90;;;;;;5063755;28;20060;-74
2022/12/09 03:41:22;;;;;;;12.80;8.50;;;3.50;99.90;;;;;;5081143;28;20104;-73
2022/12/09 03:43:56;;;;;;;12.07;8.20;;;3.60;99.90;;;;;;5063969;28;20067;-73
2022/12/09 03:46:23;;;;;;;13.63;8.52;;;3.60;99.90;;;;;;5063703;28;20024;-73
2022/12/09 03:48:48;;;;;;;12.93;8.73;;;3.60;99.90;;;;;;5062466;28;20077;-73
2022/12/09 03:51:32;;;;;;;12.98;8.02;;;3.60;99.90;;;;;;5080370;28;20037;-73
2022/12/09 03:54:07;;;;;;;12.70;8.80;;;3.60;99.90;;;;;;5081216;28;20021;-73
2022/12/09 03:56:39;;;;;;;12.65;8.00;;;3.60;99.90;;;;;;5062621;28;20029;-74
2022/12/09 03:59:09;;;;;;;10.82;7.57;;;3.60;99.90;;;;;;5063343;28;20433;-74
2022/12/09 04:01:35;;;;;;;13.48;8.20;;;3.60;99.90;;;;;;5082068;28;20158;-73
2022/12/09 04:04:01;;;;;;;13.18;8.48;;;3.60;99.90;;;;;;5081193;28;20052;-74
2022/12/09 04:06:26;;;;;;;11.85;7.85;;;3.60;99.90;;;;;;5080433;28;20078;-74
2022/12/09 04:08:52;;;;;;;13.02;8.80;;;3.70;99.90;;;;;;5079341;28;20422;-74
2022/12/09 04:11:18;;;;;;;12.50;8.00;;;3.70;99.90;;;;;;5081469;28;20365;-74
2022/12/09 04:13:43;;;;;;;11.95;8.05;;;3.60;99.90;;;;;;5081883;28;20517;-74
2022/12/09 04:16:09;;;;;;;13.30;8.27;;;3.70;99.90;;;;;;5080579;28;20033;-74
2022/12/09 04:18:35;;;;;;;14.63;8.77;;;3.60;99.90;;;;;;5082041;28;20028;-74
2022/12/09 04:21:08;;;;;;;12.35;8.25;;;3.60;99.90;;;;;;5082103;28;20028;-74
2022/12/09 04:23:35;;;;;;;13.43;8.63;;;3.60;99.90;;;;;;5065250;28;20024;-74
2022/12/09 04:26:01;;;;;;;15.73;9.70;;;3.70;99.90;;;;;;5081298;28;20032;-73
2022/12/09 04:28:26;;;;;;;16.35;10.05;;;3.70;99.90;;;;;;5063272;28;20115;-73
2022/12/09 04:30:52;;;;;;;15.25;9.57;;;3.70;99.90;;;;;;5081190;28;20059;-74
2022/12/09 04:33:17;;;;;;;15.48;8.95;;;3.60;99.90;;;;;;5063745;28;20029;-74
2022/12/09 04:35:43;;;;;;;17.92;10.45;;;3.70;99.90;;;;;;5081842;28;20111;-74
2022/12/09 04:38:09;;;;;;;20.30;11.88;;;3.60;99.90;;;;;;5081541;28;20035;-74
2022/12/09 04:40:34;;;;;;;19.00;11.73;;;3.60;99.90;;;;;;5080401;28;20485;-74
2022/12/09 04:43:00;;;;;;;20.83;12.05;;;3.60;99.90;;;;;;5063814;28;20483;-74
2022/12/09 04:45:26;;;;;;;24.05;12.02;;;3.60;99.90;;;;;;5080825;28;20036;-74
2022/12/09 04:47:51;;;;;;;19.88;11.68;;;3.60;99.90;;;;;;5080296;28;20082;-73
2022/12/09 04:50:17;;;;;;;26.75;11.65;;;3.60;99.90;;;;;;5063836;28;20020;-73
2022/12/09 04:52:43;;;;;;;22.38;13.32;;;3.60;99.90;;;;;;5080395;28;20030;-73
2022/12/09 04:55:08;;;;;;;23.20;13.55;;;3.50;99.90;;;;;;5062264;28;20040;-73
2022/12/09 04:57:35;;;;;;;21.98;12.38;;;3.50;99.90;;;;;;5080807;28;20052;-73
2022/12/09 05:00:01;;;;;;;23.52;12.40;;;3.50;99.90;;;;;;5084768;28;20457;-73
2022/12/09 05:02:28;;;;;;;22.50;12.48;;;3.50;99.90;;;;;;5084710;28;20024;-74
2022/12/09 05:04:54;;;;;;;27.27;14.10;;;3.40;99.90;;;;;;5083517;28;20020;-74
2022/12/09 05:07:19;;;;;;;25.27;12.75;;;3.40;99.90;;;;;;5081135;28;20119;-73
2022/12/09 05:09:45;;;;;;;21.65;11.32;;;3.40;99.90;;;;;;5080714;28;20033;-75
2022/12/09 05:12:11;;;;;;;22.55;11.65;;;3.30;99.90;;;;;;5060981;28;20032;-75
2022/12/09 05:14:36;;;;;;;24.17;12.23;;;3.30;99.90;;;;;;5081408;28;20059;-79
2022/12/09 05:17:03;;;;;;;24.52;11.63;;;3.30;99.90;;;;;;5063230;28;20047;-77
2022/12/09 05:19:28;;;;;;;20.92;12.02;;;3.30;99.90;;;;;;5080354;28;20484;-79
2022/12/09 05:21:54;;;;;;;20.83;11.88;;;;;;;;;;5162513;22;20040;-80
2022/12/09 05:24:20;;;;;;;23.30;12.73;;;3.30;99.90;;;;;;5060788;28;20128;-76
2022/12/09 05:26:46;;;;;;;28.35;12.10;;;3.20;99.90;;;;;;5042855;28;20084;-75
2022/12/09 05:29:11;;;;;;;24.73;12.82;;;3.20;99.90;;;;;;5043207;28;20112;-75
2022/12/09 05:31:37;;;;;;;24.80;12.57;;;3.20;99.90;;;;;;5060461;28;20025;-76
2022/12/09 05:34:03;;;;;;;21.85;11.77;;;3.20;99.90;;;;;;5042735;28;20102;-75
2022/12/09 05:36:28;;;;;;;26.27;12.63;;;3.20;99.90;;;;;;5046873;28;20033;-81
2022/12/09 05:38:54;;;;;;;21.30;12.35;;;3.20;99.90;;;;;;5040831;28;20029;-72
2022/12/09 05:41:21;;;;;;;23.33;13.02;;;3.10;99.90;;;;;;5058326;28;20469;-73
2022/12/09 05:43:47;;;;;;;22.25;12.13;;;3.20;99.90;;;;;;5040829;28;20025;-74
2022/12/09 05:46:14;;;;;;;24.83;13.82;;;3.10;99.90;;;;;;5060505;28;20025;-78
2022/12/09 05:48:40;;;;;;;22.20;13.13;;;3.10;99.90;;;;;;5045848;28;20116;-77
2022/12/09 05:51:09;;;;;;;26.77;13.95;;;3.10;99.90;;;;;;5046504;28;20040;-79
2022/12/09 05:53:35;;;;;;;21.73;12.63;;;3.10;99.90;;;;;;5058966;28;20025;-79
2022/12/09 05:56:01;;;;;;;28.10;15.32;;;3.00;99.90;;;;;;5200681;22;20031;-79
2022/12/09 05:58:27;;;;;;;24.73;13.90;;;3.00;99.90;;;;;;5091303;28;20028;-83
2022/12/09 06:00:56;;;;;;;26.00;12.88;;;;;;;;;;5142203;23;20028;-79
2022/12/09 06:03:22;;;;;;;25.60;14.70;;;3.00;99.90;;;;;;5052753;28;20021;-74
2022/12/09 06:05:48;;;;;;;32.30;14.80;;;3.00;99.90;;;;;;5037184;28;20026;-75
2022/12/09 06:08:14;;;;;;;29.08;13.23;;;2.90;99.90;;;;;;5118483;23;20033;-77
2022/12/09 06:10:40;;;;;;;24.80;13.70;;;2.90;99.90;;;;;;5088018;28;20020;-79
2022/12/09 06:13:06;;;;;;;30.80;15.23;;;2.90;99.90;;;;;;5089800;28;20099;-75
2022/12/09 06:15:33;;;;;;;24.30;13.07;;;2.90;99.90;;;;;;5066159;28;20052;-76
2022/12/09 06:18:00;;;;;;;29.40;15.23;;;2.90;99.90;;;;;;5066391;28;20032;-75
2022/12/09 06:20:25;;;;;;;25.77;13.18;;;2.90;99.90;;;;;;5064793;28;20025;-75
2022/12/09 06:22:51;;;;;;;26.40;14.45;;;2.90;99.90;;;;;;5083488;28;20028;-75
2022/12/09 06:25:16;;;;;;;26.88;13.38;;;2.90;99.90;;;;;;5082363;28;20036;-74
2022/12/09 06:27:42;;;;;;;25.52;14.43;;;2.90;99.90;;;;;;5082433;28;20028;-75
2022/12/09 06:30:08;;;;;;;26.15;13.63;;;2.90;99.90;;;;;;5063799;28;20029;-75
2022/12/09 06:32:34;;;;;;;24.75;13.15;;;2.90;99.90;;;;;;5082367;28;20025;-75
2022/12/09 06:37:33;;;;;;;28.38;14.23;;;2.90;99.90;;;;;;5007875;28;20060;-79
2022/12/09 06:39:58;;;;;;;26.73;14.77;;;2.90;99.90;;;;;;5009624;28;20074;-80
2022/12/09 06:42:24;;;;;;;26.20;14.43;;;2.90;99.90;;;;;;5004216;28;20026;-75
2022/12/09 06:44:50;;;;;;;23.60;12.88;;;2.90;99.90;;;;;;5003514;28;20078;-71
2022/12/09 06:47:15;;;;;;;26.02;14.23;;;2.90;99.90;;;;;;5003884;28;20030;-74
2022/12/09 06:49:41;;;;;;;27.48;14.35;;;2.90;99.90;;;;;;5002455;28;20026;-78
2022/12/09 06:52:07;;;;;;;23.52;13.68;;;2.90;99.90;;;;;;5005901;28;20041;-77
2022/12/09 06:54:32;;;;;;;23.92;13.07;;;2.90;99.90;;;;;;5006855;28;20054;-76
2022/12/09 06:56:58;;;;;;;25.48;13.73;;;3.00;99.90;;;;;;5004959;28;20034;-74
2022/12/09 06:59:24;;;;;;;28.63;14.65;;;3.00;99.90;;;;;;5006259;28;20038;-74
2022/12/09 07:01:49;;;;;;;25.88;13.68;;;3.00;99.90;;;;;;5003774;28;20019;-58
2022/12/09 07:04:15;;;;;;;27.05;15.05;;;3.00;99.90;;;;;;5000256;28;20037;-68
2022/12/09 07:06:44;;;;;;;24.90;13.75;;;3.00;99.90;;;;;;4997918;28;20073;-63
2022/12/09 07:09:11;;;;;;;32.17;14.80;;;3.00;99.90;;;;;;4997821;28;20022;-63
2022/12/09 07:11:37;;;;;;;28.73;14.73;;;3.00;99.90;;;;;;4997448;28;20471;-63
2022/12/09 07:14:03;;;;;;;23.70;13.65;;;3.10;99.90;;;;;;5002447;28;20138;-64
2022/12/09 07:16:29;;;;;;;26.73;14.50;;;3.10;99.90;;;;;;4997297;28;20517;-65
2022/12/09 07:18:55;;;;;;;25.73;14.27;;;3.10;99.90;;;;;;4994795;28;20026;-66
2022/12/09 07:21:22;;;;;;;24.98;14.18;;;3.10;99.90;;;;;;5001536;28;20066;-74
2022/12/09 07:23:48;;;;;;;26.50;14.98;;;3.10;99.90;;;;;;5003817;28;20037;-76
2022/12/09 07:26:14;;;;;;;24.10;13.80;;;3.10;99.90;;;;;;5006085;28;20035;-75
2022/12/09 07:28:41;;;;;;;25.67;14.10;;;3.10;99.90;;;;;;5002712;28;20027;-74
2022/12/09 07:31:23;;;;;;;26.10;13.85;;;3.10;99.90;;;;;;5004231;28;20497;-75
2022/12/09 07:33:49;;;;;;;26.65;14.18;;;3.10;99.90;;;;;;5003023;28;20513;-75
2022/12/09 07:36:15;;;;;;;25.88;13.73;;;3.00;99.90;;;;;;5004709;28;20058;-75
2022/12/09 07:38:41;;;;;;;26.83;14.27;;;2.90;99.90;;;;;;5024949;28;20474;-78
2022/12/09 07:41:08;;;;;;;29.77;14.82;;;2.90;99.90;;;;;;5031271;28;20065;-82
2022/12/09 07:43:34;;;;;;;29.15;14.43;;;2.90;99.90;;;;;;5015339;28;20012;-82
2022/12/09 07:46:07;;;;;;;27.83;13.80;;;3.00;99.90;;;;;;5030372;28;20022;-80
2022/12/09 07:48:33;;;;;;;26.60;14.30;;;2.90;99.90;;;;;;5012932;28;20053;-76
2022/12/09 07:51:03;;;;;;;29.88;15.63;;;2.90;99.90;;;;;;5005596;28;20026;-79
2022/12/09 07:53:29;;;;;;;29.08;14.95;;;2.90;99.90;;;;;;5005219;28;20033;-78
2022/12/09 07:55:59;;;;;;;29.90;15.32;;;2.90;99.90;;;;;;5023662;28;20467;-79
2022/12/09 07:58:25;;;;;;;28.17;14.02;;;3.00;99.90;;;;;;5007719;28;20030;-76
2022/12/09 08:00:50;;;;;;;28.10;14.30;;;3.00;99.90;;;;;;5023394;28;20048;-77
2022/12/09 08:03:16;;;;;;;37.25;14.70;;;3.10;99.90;;;;;;5005282;28;20033;-77
2022/12/09 08:05:49;;;;;;;31.60;14.95;;;3.10;99.90;;;;;;5022280;28;20097;-76
2022/12/09 08:08:15;;;;;;;26.30;14.20;;;3.20;99.90;;;;;;5024912;28;20096;-79
2022/12/09 08:10:41;;;;;;;29.10;14.18;;;3.10;99.90;;;;;;5023115;28;20022;-76
2022/12/09 08:13:07;;;;;;;29.13;14.40;;;3.20;99.90;;;;;;4998586;28;20030;-75
2022/12/09 08:15:32;;;;;;;25.05;13.57;;;3.20;99.90;;;;;;5019674;28;20044;-75
2022/12/09 08:17:58;;;;;;;28.52;13.25;;;3.20;99.90;;;;;;5033043;28;20033;-75
2022/12/09 08:20:24;;;;;;;25.63;14.10;;;3.20;99.90;;;;;;5039985;28;20026;-76
2022/12/09 08:22:50;;;;;;;35.90;14.45;;;3.20;99.90;;;;;;5022186;28;20061;-75
2022/12/09 08:25:16;;;;;;;28.33;13.35;;;3.20;99.90;;;;;;5037775;28;20044;-76
2022/12/09 08:27:43;;;;;;;28.45;14.57;;;3.30;99.90;;;;;;5018125;28;20029;-75
2022/12/09 08:30:09;;;;;;;30.38;15.23;;;3.20;99.90;;;;;;4998455;28;20036;-75
2022/12/09 08:32:35;;;;;;;28.65;13.68;;;3.20;99.90;;;;;;5019494;28;20032;-75
2022/12/09 08:35:01;;;;;;;34.28;15.50;;;3.20;99.90;;;;;;5002788;28;20033;-75
2022/12/09 08:37:26;;;;;;;26.20;13.68;;;3.30;99.90;;;;;;5020835;28;20056;-75
2022/12/09 08:39:52;;;;;;;28.73;14.07;;;3.30;99.90;;;;;;5020505;28;20370;-75
2022/12/09 08:42:17;;;;;;;32.70;14.68;;;3.40;99.90;;;;;;5017487;28;20109;-76
2022/12/09 08:44:43;;;;;;;30.05;15.43;;;3.40;99.90;;;;;;5002532;28;20454;-75
2022/12/09 08:47:09;;;;;;;27.67;14.02;;;3.50;99.90;;;;;;5022069;28;20061;-76
2022/12/09 08:49:34;;;;;;;26.05;14.95;;;3.50;99.90;;;;;;5003800;28;20057;-75
2022/12/09 08:52:00;;;;;;;24.90;13.77;;;3.40;99.90;;;;;;5019621;28;20034;-75
2022/12/09 08:54:26;;;;;;;24.88;13.15;;;3.30;99.90;;;;;;5018064;28;20022;-75
2022/12/09 08:56:53;;;;;;;27.55;13.48;;;3.30;99.90;;;;;;5001077;28;20124;-75
2022/12/09 08:59:20;;;;;;;27.63;15.02;;;3.30;99.90;;;;;;5017623;28;20101;-75
2022/12/09 09:01:46;;;;;;;30.92;15.52;;;3.20;99.90;;;;;;4999475;28;20544;-76
2022/12/09 09:04:14;;;;;;;32.28;15.43;;;3.20;99.90;;;;;;5002031;28;20032;-75
2022/12/09 09:06:42;;;;;;;30.45;14.55;;;3.10;99.90;;;;;;5015332;28;20034;-76
2022/12/09 09:09:10;;;;;;;31.63;14.63;;;3.20;99.90;;;;;;5038265;28;20100;-76
2022/12/09 09:11:36;;;;;;;30.98;15.43;;;3.20;99.90;;;;;;5040210;28;20212;-76
2022/12/09 09:14:08;;;;;;;29.85;14.75;;;3.20;99.90;;;;;;5038892;28;20477;-75
2022/12/09 09:16:36;;;;;;;30.77;14.85;;;3.20;99.90;;;;;;5040582;28;20033;-76
2022/12/09 09:19:04;;;;;;;32.97;15.52;;;3.30;99.90;;;;;;5046460;28;20036;-76
2022/12/09 09:21:30;;;;;;;34.53;15.73;;;3.30;99.90;;;;;;5027725;28;20469;-76
2022/12/09 09:23:56;;;;;;;33.60;15.50;;;3.30;99.90;;;;;;5044594;28;20268;-76
2022/12/09 09:26:24;;;;;;;32.05;16.60;;;3.40;99.90;;;;;;5026347;28;20037;-76
2022/12/09 09:28:51;;;;;;;35.55;16.38;;;3.40;99.90;;;;;;5025207;28;20458;-76
2022/12/09 09:31:19;;;;;;;47.63;16.85;;;3.50;99.90;;;;;;5043981;28;20029;-76
2022/12/09 09:33:45;;;;;;;32.60;16.35;;;3.50;99.90;;;;;;5025918;28;20124;-76
2022/12/09 09:36:21;;;;;;;34.50;16.73;;;3.50;99.90;;;;;;5044468;28;20052;-75
2022/12/09 09:38:48;;;;;;;38.75;17.40;;;3.60;99.90;;;;;;5041537;28;20373;-76
2022/12/09 09:41:51;;;;;;;46.90;17.80;;;3.60;99.90;;;;;;5023711;28;20052;-75
2022/12/09 09:44:31;;;;;;;37.50;17.23;;;3.60;99.90;;;;;;5023040;28;20039;-76
2022/12/09 09:46:59;;;;;;;40.97;17.92;;;3.60;99.90;;;;;;5022557;28;20032;-75
2022/12/09 09:49:31;;;;;;;37.35;17.02;;;3.60;99.90;;;;;;5040882;28;20047;-75
2022/12/09 09:51:57;;;;;;;36.35;17.00;;;3.70;99.90;;;;;;5022678;28;20517;-74
2022/12/09 09:54:22;;;;;;;41.15;17.02;;;3.70;99.90;;;;;;5022735;28;20539;-74
2022/12/09 09:57:01;;;;;;;39.33;18.60;;;3.70;99.90;;;;;;5022765;28;20037;-74
2022/12/09 09:59:32;;;;;;;40.50;18.20;;;3.70;99.90;;;;;;5023630;28;20473;-74
2022/12/09 10:02:10;;;;;;;37.78;18.00;;;3.80;99.90;;;;;;5041366;28;20025;-74
2022/12/09 10:04:50;;;;;;;41.20;18.55;;;3.80;99.90;;;;;;5040439;28;20029;-74
2022/12/09 10:07:27;;;;;;;45.58;20.33;;;3.80;99.90;;;;;;5020695;28;20351;-75
2022/12/09 10:10:37;;;;;;;44.30;18.65;;;3.80;99.90;;;;;;5019018;28;20033;-75
2022/12/09 10:13:16;;;;;;;45.03;19.70;;;3.80;99.90;;;;;;5007701;28;20478;-75
2022/12/09 10:15:51;;;;;;;45.20;20.00;;;3.80;99.90;;;;;;5002514;28;20030;-74
2022/12/09 10:18:24;;;;;;;46.83;20.23;;;3.80;99.90;;;;;;5019042;28;20070;-74
2022/12/09 10:20:50;;;;;;;46.95;20.80;;;3.80;99.90;;;;;;5001688;28;20026;-75
2022/12/09 10:23:16;;;;;;;51.95;20.10;;;3.70;99.90;;;;;;5018692;28;20033;-75
2022/12/09 10:25:53;;;;;;;41.22;18.52;;;3.70;99.90;;;;;;5006346;28;20026;-75
2022/12/09 10:28:33;;;;;;;50.13;19.98;;;3.80;99.90;;;;;;5007690;28;20033;-75
2022/12/09 10:30:59;;;;;;;42.33;19.23;;;3.80;99.90;;;;;;5032901;28;20026;-77
2022/12/09 10:33:32;;;;;;;49.95;19.88;;;3.80;99.90;;;;;;5006323;28;20033;-75
2022/12/09 10:35:58;;;;;;;43.97;20.00;;;3.80;99.90;;;;;;5005443;28;20046;-76
2022/12/09 10:38:25;;;;;;;48.78;19.13;;;3.80;99.90;;;;;;5011887;28;20022;-76
2022/12/09 10:44:26;;;;;;;45.85;18.45;;;3.80;99.90;;;;;;4988613;28;20061;-77
2022/12/09 10:47:03;;;;;;;47.30;19.65;;;3.80;99.90;;;;;;5009679;28;20030;-75
2022/12/09 10:49:30;;;;;;;40.38;18.70;;;3.80;99.90;;;;;;5011173;28;20029;-76
2022/12/09 10:51:57;;;;;;;50.42;21.58;;;3.90;99.90;;;;;;5007945;28;20041;-75
2022/12/09 10:54:33;;;;;;;39.78;17.40;;;3.90;99.90;;;;;;5009359;28;20030;-76
2022/12/09 10:57:24;;;;;;;43.83;19.75;;;4.00;99.90;;;;;;5009221;28;20145;-76
2022/12/09 11:00:04;;;;;;;37.38;17.38;;;4.00;99.90;;;;;;5002295;28;20034;-76
2022/12/09 11:02:31;;;;;;;41.17;19.35;;;4.00;99.90;;;;;;5007181;28;20097;-76
2022/12/09 11:05:26;;;;;;;41.85;17.92;;;4.00;99.90;;;;;;5003016;28;20030;-76
2022/12/09 11:07:55;;;;;;;38.10;17.52;;;4.10;99.90;;;;;;5003406;28;20374;-78
2022/12/09 11:10:23;;;;;;;37.92;16.92;;;4.20;99.90;;;;;;5003614;28;20109;-77
2022/12/09 11:12:54;;;;;;;32.23;15.73;;;4.20;99.90;;;;;;5004329;28;20041;-76
2022/12/09 11:15:37;;;;;;;36.42;16.98;;;4.30;99.90;;;;;;5037225;28;20033;-77
2022/12/09 11:18:19;;;;;;;30.73;16.10;;;4.30;99.90;;;;;;5035265;28;20494;-75
2022/12/09 11:20:59;;;;;;;35.35;16.50;;;4.40;99.90;;;;;;5000860;28;20027;-75
2022/12/09 11:23:26;;;;;;;30.77;17.55;;;4.40;99.90;;;;;;5001600;28;20037;-76
2022/12/09 11:25:53;;;;;;;27.10;15.52;;;4.40;99.90;;;;;;5003232;28;20031;-75
2022/12/09 11:28:33;;;;;;;32.90;14.40;;;4.50;99.90;;;;;;5004291;28;20115;-78
2022/12/09 11:31:19;;;;;;;31.90;15.27;;;4.50;99.90;;;;;;5000504;28;20498;-75
2022/12/09 11:33:52;;;;;;;29.38;14.07;;;4.50;99.90;;;;;;5000201;28;20382;-75
2022/12/09 11:36:25;;;;;;;27.13;14.02;;;4.60;99.90;;;;;;5009816;28;20068;-75
2022/12/09 11:39:05;;;;;;;30.75;15.40;;;4.60;99.90;;;;;;5000828;28;20411;-76
2022/12/09 11:44:28;;;;;;;23.77;13.13;;;4.70;99.90;;;;;;5017297;28;20033;-75
2022/12/09 11:46:56;;;;;;;;;;;4.80;99.90;;;;;;5017831;28;20057;-75
2022/12/09 11:49:21;;;;;;;24.23;13.40;;;4.80;99.90;;;;;;4999870;28;19913;-75
2022/12/09 11:52:06;;;;;;;25.60;13.18;;;4.90;99.90;;;;;;5017944;28;20038;-77
2022/12/09 11:54:47;;;;;;;19.77;10.98;;;5.00;99.90;;;;;;5001386;28;20443;-75
2022/12/09 11:57:31;;;;;;;23.75;11.63;;;5.00;99.90;;;;;;5042237;28;20466;-81
2022/12/09 12:00:01;;;;;;;18.70;10.40;;;5.10;99.90;;;;;;5003330;28;20498;-78
2022/12/09 12:02:39;;;;;;;19.05;10.77;;;5.10;99.90;;;;;;5002586;28;20029;-77
2022/12/09 12:05:17;;;;;;;20.60;10.48;;;5.20;99.90;;;;;;5019664;28;20071;-74
2022/12/09 12:08:07;;;;;;;22.50;11.23;;;5.20;99.90;;;;;;5021891;28;20475;-80
2022/12/09 12:10:39;;;;;;;21.27;11.10;;;5.20;99.90;;;;;;5000476;28;20092;-75
2022/12/09 12:13:09;;;;;;;25.27;11.20;;;5.20;99.90;;;;;;5033929;28;20076;-76
2022/12/09 12:15:58;;;;;;;24.67;11.45;;;5.20;99.90;;;;;;5017479;28;20103;-77
2022/12/09 12:18:33;;;;;;;18.25;10.50;;;5.20;99.90;;;;;;5018472;28;20049;-82
2022/12/09 12:21:08;;;;;;;19.30;10.15;;;4.90;99.90;;;;;;5028928;28;20034;-82
2022/12/09 12:24:06;;;;;;;18.48;10.48;;;5.20;99.90;;;;;;5007418;28;20425;-80
2022/12/09 12:27:01;;;;;;;22.77;11.03;;;5.20;99.90;;;;;;5026145;28;20034;-81
2022/12/09 12:30:12;;;;;;;17.13;9.63;;;5.20;99.90;;;;;;5010561;28;20037;-82
2022/12/09 12:32:44;;;;;;;14.50;9.30;;;5.20;99.90;;;;;;5027625;28;20034;-82
2022/12/09 12:35:37;;;;;;;17.30;9.57;;;5.20;99.90;;;;;;5007350;28;20030;-81
2022/12/09 12:38:16;;;;;;;15.77;9.48;;;5.20;99.90;;;;;;5028576;28;20026;-82
2022/12/09 12:41:03;;;;;;;18.33;10.25;;;5.20;99.90;;;;;;5013517;28;20061;-81
2022/12/09 12:46:43;;;;;;;18.52;9.55;;;5.20;99.90;;;;;;5019223;28;20041;-76
2022/12/09 12:49:24;;;;;;;22.60;10.38;;;5.20;99.90;;;;;;5023543;28;20433;-75
2022/12/09 12:51:52;;;;;;;19.02;10.55;;;5.20;99.90;;;;;;5022258;28;20127;-71
2022/12/09 12:54:27;;;;;;;17.73;9.70;;;5.10;99.90;;;;;;5024652;28;20026;-68
2022/12/09 12:57:03;;;;;;;25.40;15.35;;;5.10;99.90;;;;;;5019325;28;20036;-73
2022/12/09 12:59:42;;;;;;;30.27;19.95;;;5.10;99.90;;;;;;5021115;28;20034;-73
2022/12/09 13:02:17;;;;;;;;;;;5.10;99.90;;;;;;5020162;28;20022;-73
2022/12/09 13:04:48;;;;;;;20.27;10.75;;;5.10;99.90;;;;;;5016928;28;19905;-74
2022/12/09 13:07:23;;;;;;;23.08;15.57;;;5.00;99.90;;;;;;5016529;28;20030;-73